Terminal Aerodrome Forecast
Issued by NWS

Home | Current Version | Previous Version | Text Only | Print | Product List | Glossary Off
Versions: 1 2 3 4 5 6 7 8 9 10 11 12

000
FTUS43 KMPX 120500
TAFAXN
TAF
KAXN 120524Z 1206/1306 00000KT P6SM SCT120 BKN250
     FM120900 36005KT P6SM BKN120
     FM121600 31009KT P6SM BKN100
     FM122100 29008KT P6SM SCT100=

USA.gov is the U.S. government's official web portal to all federal, state and local government web resources and services.